createdAt,value
2023-03-29T00:02:02.262Z,98732.59
2023-03-29T00:04:29.087Z,98713.34
2023-03-29T00:06:55.996Z,98718.53
2023-03-29T00:09:23.488Z,98723.34
2023-03-29T00:11:50.161Z,98700.34
2023-03-29T00:14:16.796Z,98709.75
2023-03-29T00:16:45.109Z,98720.91
2023-03-29T00:19:11.968Z,98715.38
2023-03-29T00:21:38.607Z,98714.69
2023-03-29T00:24:05.661Z,98707.09
2023-03-29T00:26:32.292Z,98706.38
2023-03-29T00:28:59.000Z,98700.22
2023-03-29T00:31:26.523Z,98701.47
2023-03-29T00:33:53.278Z,98698.41
2023-03-29T00:36:19.989Z,98695.00
2023-03-29T00:38:46.708Z,98692.41
2023-03-29T00:41:14.126Z,98689.56
2023-03-29T00:43:57.483Z,98697.06
2023-03-29T00:46:26.296Z,98691.25
2023-03-29T00:48:58.038Z,98697.03
2023-03-29T00:51:27.848Z,98691.25
2023-03-29T00:53:58.726Z,98682.06
2023-03-29T00:56:35.016Z,98679.94
2023-03-29T00:59:06.238Z,98671.31
2023-03-29T01:01:42.364Z,98679.38
2023-03-29T01:06:57.175Z,98664.84
2023-03-29T01:09:27.406Z,98663.50
2023-03-29T01:11:57.584Z,98656.25
2023-03-29T01:14:38.691Z,98646.16
2023-03-29T01:17:06.771Z,98649.19
2023-03-29T01:19:42.477Z,98658.22
2023-03-29T01:22:38.922Z,98645.34
2023-03-29T01:25:27.025Z,98650.59
2023-03-29T01:28:02.670Z,98635.47
2023-03-29T01:30:33.570Z,98622.41
2023-03-29T01:33:10.730Z,98624.47
2023-03-29T01:35:44.941Z,98605.34
2023-03-29T01:38:21.695Z,98606.47
2023-03-29T01:40:48.423Z,98601.25
2023-03-29T01:43:20.922Z,98598.56
2023-03-29T01:45:54.816Z,98602.56
2023-03-29T01:48:40.941Z,98588.38
2023-03-29T01:51:13.693Z,98585.97
2023-03-29T01:53:57.632Z,98589.25
2023-03-29T01:56:28.428Z,98577.25
2023-03-29T01:59:04.172Z,98570.56
2023-03-29T02:01:40.612Z,98580.06
2023-03-29T02:04:13.474Z,98569.88
2023-03-29T02:06:42.139Z,98572.13
2023-03-29T02:09:09.316Z,98563.03
2023-03-29T02:11:36.524Z,98558.75
2023-03-29T02:14:03.657Z,98562.16
2023-03-29T02:16:36.556Z,98559.25
2023-03-29T02:19:04.069Z,98547.03
2023-03-29T02:21:40.112Z,98550.91
2023-03-29T02:24:11.511Z,98541.41
2023-03-29T02:26:38.252Z,98539.69
2023-03-29T02:29:05.061Z,98536.66
2023-03-29T02:31:53.852Z,98540.16
2023-03-29T02:34:27.539Z,98533.16
2023-03-29T02:36:59.097Z,98540.03
2023-03-29T02:39:28.353Z,98539.25
2023-03-29T02:41:56.299Z,98543.22
2023-03-29T02:44:27.282Z,98538.59
2023-03-29T02:49:32.816Z,98522.97
2023-03-29T02:52:09.091Z,98523.75
2023-03-29T02:57:10.589Z,98502.06
2023-03-29T02:59:38.850Z,98492.09
2023-03-29T03:04:37.880Z,98495.28
2023-03-29T03:07:07.793Z,98487.13
2023-03-29T03:09:34.594Z,98485.00
2023-03-29T03:12:01.368Z,98484.66
2023-03-29T03:14:28.493Z,98480.63
2023-03-29T03:19:29.137Z,98482.28
2023-03-29T03:21:56.278Z,98484.00
2023-03-29T03:24:23.041Z,98489.66
2023-03-29T03:26:50.230Z,98485.69
2023-03-29T03:29:17.373Z,98488.09
2023-03-29T03:34:16.029Z,98486.63
2023-03-29T03:36:42.926Z,98484.94
2023-03-29T03:39:09.869Z,98492.94
2023-03-29T03:41:36.697Z,98483.19
2023-03-29T03:44:03.430Z,98487.41
2023-03-29T03:46:30.108Z,98478.91
2023-03-29T03:48:56.823Z,98471.66
2023-03-29T03:51:23.639Z,98479.72
2023-03-29T03:56:30.143Z,98473.22
2023-03-29T03:58:57.317Z,98473.22
2023-03-29T04:01:24.719Z,98472.34
2023-03-29T04:03:51.696Z,98465.75
2023-03-29T04:06:18.846Z,98473.66
2023-03-29T04:08:45.771Z,98472.28
2023-03-29T04:11:12.502Z,98476.03
2023-03-29T04:13:39.256Z,98473.53
2023-03-29T04:18:39.708Z,98479.75
2023-03-29T04:21:06.542Z,98485.66
2023-03-29T04:23:33.253Z,98493.34
2023-03-29T04:25:59.943Z,98496.59
2023-03-29T04:28:26.658Z,98490.72
2023-03-29T04:30:53.350Z,98488.91
2023-03-29T04:33:20.234Z,98489.78
2023-03-29T04:35:47.099Z,98480.31
2023-03-29T04:38:13.819Z,98486.50
2023-03-29T04:40:40.566Z,98482.72
2023-03-29T04:43:07.243Z,98482.72
2023-03-29T04:45:33.940Z,98485.03
2023-03-29T04:48:00.722Z,98488.16
2023-03-29T04:50:28.163Z,98486.81
2023-03-29T04:52:54.783Z,98486.19
2023-03-29T04:55:21.536Z,98492.44
2023-03-29T04:57:48.266Z,98489.47
2023-03-29T05:00:15.759Z,98492.88
2023-03-29T05:02:46.116Z,98486.16
2023-03-29T05:05:14.131Z,98490.13
2023-03-29T05:07:41.172Z,98492.66
2023-03-29T05:10:08.696Z,98498.69
2023-03-29T05:12:35.533Z,98495.81
2023-03-29T05:15:02.621Z,98485.22
2023-03-29T05:17:29.317Z,98480.59
2023-03-29T05:19:55.960Z,98485.38
2023-03-29T05:22:23.630Z,98487.66
2023-03-29T05:24:51.771Z,98482.91
2023-03-29T05:27:18.968Z,98483.25
2023-03-29T05:29:45.643Z,98487.00
2023-03-29T05:32:13.177Z,98479.53
2023-03-29T05:34:40.004Z,98483.84
2023-03-29T05:37:06.741Z,98482.31
2023-03-29T05:39:35.741Z,98484.09
2023-03-29T05:42:04.772Z,98489.13
2023-03-29T05:44:31.777Z,98482.94
2023-03-29T05:46:58.535Z,98481.50
2023-03-29T05:51:59.930Z,98478.91
2023-03-29T05:54:26.744Z,98475.63
2023-03-29T05:56:53.523Z,98482.09
2023-03-29T05:59:20.407Z,98481.84
2023-03-29T06:01:47.238Z,98482.50
2023-03-29T06:04:15.209Z,98488.28
2023-03-29T06:06:42.480Z,98481.38
2023-03-29T06:09:10.137Z,98491.47
2023-03-29T06:11:36.977Z,98484.91
2023-03-29T06:14:03.794Z,98493.22
2023-03-29T06:16:30.961Z,98481.81
2023-03-29T06:18:57.815Z,98496.06
2023-03-29T06:21:26.786Z,98488.41
2023-03-29T06:23:53.461Z,98492.19
2023-03-29T06:26:20.357Z,98495.63
2023-03-29T06:28:49.197Z,98498.25
2023-03-29T06:31:17.500Z,98495.88
2023-03-29T06:33:44.336Z,98500.97
2023-03-29T06:36:12.239Z,98503.34
2023-03-29T06:38:39.019Z,98503.06
2023-03-29T06:41:07.826Z,98502.88
2023-03-29T06:43:35.099Z,98509.22
2023-03-29T06:46:02.176Z,98514.47
2023-03-29T06:48:29.302Z,98511.25
2023-03-29T06:50:56.717Z,98509.28
2023-03-29T06:53:23.446Z,98509.41
2023-03-29T06:55:52.028Z,98510.72
2023-03-29T06:58:18.812Z,98509.69
2023-03-29T07:00:45.959Z,98511.84
2023-03-29T07:03:20.143Z,98511.59
2023-03-29T07:08:31.450Z,98516.94
2023-03-29T07:10:59.597Z,98516.59
2023-03-29T07:13:26.600Z,98535.50
2023-03-29T07:15:53.477Z,98539.31
2023-03-29T07:18:20.479Z,98541.00
2023-03-29T07:20:48.597Z,98536.56
2023-03-29T07:23:15.803Z,98550.41
2023-03-29T07:25:42.517Z,98541.78
2023-03-29T07:28:09.349Z,98547.34
2023-03-29T07:30:37.341Z,98551.81
2023-03-29T07:33:04.755Z,98539.81
2023-03-29T07:35:31.547Z,98557.06
2023-03-29T07:37:58.838Z,98552.84
2023-03-29T07:40:26.604Z,98551.56
2023-03-29T07:42:55.340Z,98549.88
2023-03-29T07:45:26.721Z,98541.00
2023-03-29T07:47:57.389Z,98546.44
2023-03-29T07:50:24.863Z,98547.13
2023-03-29T07:52:51.815Z,98550.88
2023-03-29T07:55:18.685Z,98553.34
2023-03-29T07:57:45.526Z,98558.41
2023-03-29T08:02:52.569Z,98562.78
2023-03-29T08:05:37.952Z,98565.66
2023-03-29T08:08:07.634Z,98557.69
2023-03-29T08:13:15.606Z,98557.78
2023-03-29T08:15:46.423Z,98561.22
2023-03-29T08:18:13.225Z,98561.28
2023-03-29T08:20:40.238Z,98564.75
2023-03-29T08:23:07.186Z,98571.38
2023-03-29T08:25:35.384Z,98556.66
2023-03-29T08:28:02.236Z,98552.00
2023-03-29T08:30:29.113Z,98556.28
2023-03-29T08:32:56.539Z,98559.44
2023-03-29T08:35:23.349Z,98551.16
2023-03-29T08:37:50.061Z,98546.16
2023-03-29T08:40:21.614Z,98551.88
2023-03-29T08:46:00.353Z,98560.91
2023-03-29T08:48:42.540Z,98559.81
2023-03-29T08:51:33.443Z,98555.31
2023-03-29T08:54:04.392Z,98561.25
2023-03-29T08:56:35.015Z,98552.66
2023-03-29T08:59:02.365Z,98539.53
2023-03-29T09:01:35.072Z,98545.97
2023-03-29T09:04:09.985Z,98539.34
2023-03-29T09:06:39.779Z,98538.63
2023-03-29T09:09:15.430Z,98539.81
2023-03-29T09:11:49.220Z,98538.19
2023-03-29T09:14:27.650Z,98541.09
2023-03-29T09:17:25.986Z,98535.78
2023-03-29T09:20:07.990Z,98545.66
2023-03-29T09:22:46.859Z,98546.38
2023-03-29T09:25:34.498Z,98541.41
2023-03-29T09:28:19.539Z,98543.41
2023-03-29T09:30:56.778Z,98538.56
2023-03-29T09:33:28.584Z,98538.00
2023-03-29T09:36:12.457Z,98537.31
2023-03-29T09:38:43.881Z,98523.47
2023-03-29T09:41:29.672Z,98527.66
2023-03-29T09:44:00.681Z,98525.03
2023-03-29T09:46:36.588Z,98524.19
2023-03-29T09:49:10.585Z,98529.41
2023-03-29T09:51:38.702Z,98506.31
2023-03-29T09:54:05.442Z,98500.09
2023-03-29T09:56:32.675Z,98490.84
2023-03-29T09:58:59.388Z,98502.59
2023-03-29T10:01:37.338Z,98492.41
2023-03-29T10:04:06.973Z,98499.50
2023-03-29T10:06:34.568Z,98502.66
2023-03-29T10:09:02.520Z,98507.41
2023-03-29T10:11:34.992Z,98512.91
2023-03-29T10:14:11.855Z,98500.88
2023-03-29T10:16:41.594Z,98507.59
2023-03-29T10:19:28.501Z,98508.84
2023-03-29T10:22:00.636Z,98496.81
2023-03-29T10:24:27.840Z,98502.31
2023-03-29T10:26:59.117Z,98491.28
2023-03-29T10:29:28.147Z,98503.22
2023-03-29T10:31:55.354Z,98497.72
2023-03-29T10:34:26.273Z,98500.47
2023-03-29T10:37:01.450Z,98485.16
2023-03-29T10:39:33.033Z,98486.00
2023-03-29T10:42:01.396Z,98494.28
2023-03-29T10:44:33.283Z,98484.94
2023-03-29T10:47:16.293Z,98484.97
2023-03-29T10:49:47.419Z,98483.25
2023-03-29T10:52:15.342Z,98477.47
2023-03-29T10:54:42.309Z,98478.19
2023-03-29T10:57:12.914Z,98475.91
2023-03-29T10:59:46.453Z,98474.34
2023-03-29T11:02:15.860Z,98470.09
2023-03-29T11:04:45.267Z,98471.72
2023-03-29T11:07:17.617Z,98472.94
2023-03-29T11:09:55.904Z,98472.66
2023-03-29T11:12:40.843Z,98466.47
2023-03-29T11:15:22.563Z,98460.97
2023-03-29T11:18:11.144Z,98453.50
2023-03-29T11:20:45.896Z,98447.22
2023-03-29T11:23:18.890Z,98443.28
2023-03-29T11:26:00.467Z,98442.09
2023-03-29T11:28:47.965Z,98444.03
2023-03-29T11:31:44.168Z,98437.75
2023-03-29T11:34:31.108Z,98441.69
2023-03-29T11:37:27.074Z,98429.50
2023-03-29T11:40:23.399Z,98437.28
2023-03-29T11:42:55.061Z,98425.13
2023-03-29T11:45:40.682Z,98427.34
2023-03-29T11:48:16.901Z,98429.78
2023-03-29T11:50:51.211Z,98428.56
2023-03-29T11:53:26.875Z,98418.28
2023-03-29T11:55:55.655Z,98419.50
2023-03-29T11:58:31.514Z,98412.06
2023-03-29T12:01:04.550Z,98411.56
2023-03-29T12:03:47.500Z,98415.47
2023-03-29T12:06:34.665Z,98413.44
2023-03-29T12:09:14.255Z,98404.81
2023-03-29T12:11:54.609Z,98400.41
2023-03-29T12:14:28.421Z,98400.31
2023-03-29T12:17:03.335Z,98390.84
2023-03-29T12:19:43.637Z,98388.09
2023-03-29T12:22:10.829Z,98384.50
2023-03-29T12:24:42.116Z,98383.88
2023-03-29T12:30:12.916Z,98379.34
2023-03-29T12:38:45.748Z,98366.69
2023-03-29T12:41:19.285Z,98372.91
2023-03-29T12:43:46.956Z,98368.44
2023-03-29T12:46:24.615Z,98362.44
2023-03-29T12:49:06.188Z,98357.59
2023-03-29T12:51:35.759Z,98358.81
2023-03-29T12:54:26.218Z,98373.78
2023-03-29T12:57:00.703Z,98374.22
2023-03-29T12:59:43.884Z,98374.94
2023-03-29T13:02:14.159Z,98367.81
2023-03-29T13:04:44.023Z,98359.84
2023-03-29T13:07:22.948Z,98361.88
2023-03-29T13:10:02.455Z,98362.94
2023-03-29T13:12:35.089Z,98367.53
2023-03-29T13:15:08.459Z,98368.13
2023-03-29T13:17:59.363Z,98375.22
2023-03-29T13:20:47.314Z,98374.97
2023-03-29T13:23:28.693Z,98380.94
2023-03-29T13:29:48.085Z,98385.91
2023-03-29T13:32:27.782Z,98389.13
2023-03-29T13:35:10.780Z,98391.56
2023-03-29T13:37:58.474Z,98388.00
2023-03-29T13:40:31.962Z,98395.53
2023-03-29T13:43:19.442Z,98392.91
2023-03-29T13:46:17.898Z,98393.72
2023-03-29T13:48:47.560Z,98395.72
2023-03-29T13:51:14.244Z,98398.09
2023-03-29T13:53:52.161Z,98398.09
2023-03-29T13:59:34.434Z,98392.16
2023-03-29T14:02:03.298Z,98380.78
2023-03-29T14:04:38.189Z,98388.66
2023-03-29T14:07:08.408Z,98392.66
2023-03-29T14:09:41.609Z,98382.09
2023-03-29T14:14:58.718Z,98383.34
2023-03-29T14:17:27.351Z,98400.31
2023-03-29T14:19:58.429Z,98410.19
2023-03-29T14:22:30.939Z,98423.19
2023-03-29T14:25:02.267Z,98416.53
2023-03-29T14:27:32.054Z,98425.19
2023-03-29T14:32:32.577Z,98424.06
2023-03-29T14:35:00.845Z,98409.91
2023-03-29T14:37:29.336Z,98408.72
2023-03-29T14:39:58.748Z,98390.28
2023-03-29T14:42:28.073Z,98379.69
2023-03-29T14:45:06.520Z,98379.25
2023-03-29T14:47:34.088Z,98378.91
2023-03-29T14:50:02.077Z,98378.47
2023-03-29T14:52:30.731Z,98376.13
2023-03-29T14:55:00.562Z,98366.34
2023-03-29T14:57:33.674Z,98376.53
2023-03-29T15:00:13.645Z,98364.72
2023-03-29T15:02:58.917Z,98358.13
2023-03-29T15:05:44.458Z,98357.31
2023-03-29T15:08:18.092Z,98353.00
2023-03-29T15:10:45.158Z,98350.63
2023-03-29T15:13:18.808Z,98341.63
2023-03-29T15:15:46.525Z,98335.75
2023-03-29T15:18:17.178Z,98337.28
2023-03-29T15:20:45.268Z,98323.16
2023-03-29T15:23:14.490Z,98329.44
2023-03-29T15:25:56.173Z,98314.91
2023-03-29T15:28:26.245Z,98316.47
2023-03-29T15:31:07.284Z,98312.97
2023-03-29T15:33:37.937Z,98312.19
2023-03-29T15:36:07.162Z,98307.06
2023-03-29T15:38:43.277Z,98299.19
2023-03-29T15:41:10.830Z,98295.28
2023-03-29T15:43:38.094Z,98298.00
2023-03-29T15:46:05.298Z,98296.44
2023-03-29T15:48:34.046Z,98298.03
2023-03-29T15:51:06.095Z,98292.53
2023-03-29T15:53:33.515Z,98289.00
2023-03-29T15:56:02.422Z,98280.75
2023-03-29T15:58:31.865Z,98285.47
2023-03-29T16:03:54.894Z,98275.28
2023-03-29T16:06:24.034Z,98276.06
2023-03-29T16:08:50.783Z,98277.63
2023-03-29T16:11:17.677Z,98285.47
2023-03-29T16:13:44.438Z,98287.06
2023-03-29T16:16:11.694Z,98281.56
2023-03-29T16:18:38.425Z,98288.59
2023-03-29T16:21:05.670Z,98288.22
2023-03-29T16:23:32.819Z,98292.13
2023-03-29T16:25:59.714Z,98292.53
2023-03-29T16:30:57.647Z,98276.44
2023-03-29T16:33:24.358Z,98273.31
2023-03-29T16:35:51.360Z,98275.28
2023-03-29T16:40:51.021Z,98276.03
2023-03-29T16:43:18.935Z,98278.81
2023-03-29T16:45:45.693Z,98277.63
2023-03-29T16:50:51.531Z,98268.22
2023-03-29T16:53:18.923Z,98261.13
2023-03-29T16:55:46.854Z,98263.88
2023-03-29T16:58:13.618Z,98259.59
2023-03-29T17:03:12.456Z,98260.34
2023-03-29T17:05:41.751Z,98255.28
2023-03-29T17:08:10.641Z,98252.53
2023-03-29T17:10:40.868Z,98248.63
2023-03-29T17:13:08.312Z,98255.66
2023-03-29T17:15:36.713Z,98250.16
2023-03-29T17:18:05.805Z,98247.81
2023-03-29T17:20:32.545Z,98251.34
2023-03-29T17:22:59.284Z,98254.88
2023-03-29T17:25:26.243Z,98267.41
2023-03-29T17:27:54.292Z,98265.84
2023-03-29T17:30:21.063Z,98259.19
2023-03-29T17:32:47.843Z,98283.88
2023-03-29T17:35:14.765Z,98282.31
2023-03-29T17:37:42.211Z,98270.13
2023-03-29T17:40:10.715Z,98265.00
2023-03-29T17:42:37.411Z,98263.84
2023-03-29T17:45:04.628Z,98252.50
2023-03-29T17:47:31.419Z,98237.59
2023-03-29T17:49:58.117Z,98237.19
2023-03-29T17:57:43.176Z,98228.97
2023-03-29T18:00:14.898Z,98239.94
2023-03-29T18:02:42.114Z,98236.03
2023-03-29T18:05:10.408Z,98235.22
2023-03-29T18:07:37.595Z,98236.00
2023-03-29T18:10:05.412Z,98228.19
2023-03-29T18:12:32.134Z,98230.13
2023-03-29T18:14:59.620Z,98226.19
2023-03-29T18:17:27.685Z,98228.56
2023-03-29T18:19:54.613Z,98221.88
2023-03-29T18:22:21.960Z,98224.22
2023-03-29T18:24:49.494Z,98222.25
2023-03-29T18:27:16.197Z,98225.00
2023-03-29T18:29:44.243Z,98218.34
2023-03-29T18:32:11.776Z,98225.38
2023-03-29T18:34:39.502Z,98226.94
2023-03-29T18:37:06.486Z,98218.28
2023-03-29T18:39:34.999Z,98216.31
2023-03-29T18:42:01.851Z,98216.75
2023-03-29T18:44:28.971Z,98217.47
2023-03-29T18:46:59.163Z,98221.00
2023-03-29T18:49:26.174Z,98225.69
2023-03-29T18:51:54.596Z,98226.13
2023-03-29T18:54:24.409Z,98220.25
2023-03-29T18:56:51.662Z,98214.00
2023-03-29T19:01:50.101Z,98206.94
2023-03-29T19:04:16.846Z,98215.91
2023-03-29T19:06:46.398Z,98217.88
2023-03-29T19:09:13.218Z,98215.91
2023-03-29T19:11:39.827Z,98206.09
2023-03-29T19:14:09.196Z,98222.56
2023-03-29T19:16:36.440Z,98218.63
2023-03-29T19:19:05.192Z,98213.59
2023-03-29T19:21:32.597Z,98210.88
2023-03-29T19:24:01.227Z,98213.66
2023-03-29T19:26:29.739Z,98210.50
2023-03-29T19:28:56.545Z,98207.38
2023-03-29T19:31:23.490Z,98210.09
2023-03-29T19:33:50.115Z,98206.97
2023-03-29T19:36:17.304Z,98215.19
2023-03-29T19:38:45.011Z,98217.94
2023-03-29T19:43:43.297Z,98213.22
2023-03-29T19:46:11.962Z,98208.94
2023-03-29T19:48:39.385Z,98209.34
2023-03-29T19:51:06.156Z,98196.03
2023-03-29T19:53:33.077Z,98199.19
2023-03-29T19:55:59.941Z,98181.53
2023-03-29T19:58:26.703Z,98170.16
2023-03-29T20:00:58.198Z,98171.38
2023-03-29T20:03:28.569Z,98167.06
2023-03-29T20:05:58.238Z,98169.78
2023-03-29T20:08:25.167Z,98168.63
2023-03-29T20:11:03.935Z,98152.91
2023-03-29T20:13:38.124Z,98152.53
2023-03-29T20:16:08.658Z,98152.16
2023-03-29T20:18:38.546Z,98151.38
2023-03-29T20:21:07.441Z,98147.84
2023-03-29T20:23:34.977Z,98142.75
2023-03-29T20:26:01.855Z,98146.66
2023-03-29T20:28:28.586Z,98141.97
2023-03-29T20:30:55.652Z,98133.72
2023-03-29T20:33:22.466Z,98132.56
2023-03-29T20:35:49.473Z,98132.56
2023-03-29T20:38:16.442Z,98131.38
2023-03-29T20:40:43.309Z,98132.56
2023-03-29T20:43:13.733Z,98127.44
2023-03-29T20:45:52.728Z,98128.63
2023-03-29T20:48:23.595Z,98120.78
2023-03-29T20:50:50.955Z,98119.22
2023-03-29T20:53:18.529Z,98121.94
2023-03-29T20:58:16.591Z,98104.28
2023-03-29T21:00:44.079Z,98103.50
2023-03-29T21:03:11.529Z,98102.69
2023-03-29T21:05:39.054Z,98099.94
2023-03-29T21:08:06.190Z,98099.53
2023-03-29T21:10:33.089Z,98094.06
2023-03-29T21:13:00.767Z,98096.78
2023-03-29T21:15:28.818Z,98095.22
2023-03-29T21:17:55.703Z,98084.66
2023-03-29T21:20:22.545Z,98087.75
2023-03-29T21:22:49.238Z,98086.97
2023-03-29T21:25:16.159Z,98081.88
2023-03-29T21:27:43.354Z,98078.28
2023-03-29T21:30:11.187Z,98084.56
2023-03-29T21:32:38.132Z,98071.97
2023-03-29T21:35:05.392Z,98074.31
2023-03-29T21:37:32.081Z,98066.50
2023-03-29T21:39:58.796Z,98064.13
2023-03-29T21:42:25.775Z,98051.56
2023-03-29T21:44:52.461Z,98045.25
2023-03-29T21:47:19.225Z,98053.53
2023-03-29T21:49:45.913Z,98049.22
2023-03-29T21:52:13.150Z,98050.41
2023-03-29T21:54:39.821Z,98048.44
2023-03-29T21:57:06.571Z,98043.75
2023-03-29T21:59:33.353Z,98042.22
2023-03-29T22:02:00.147Z,98042.97
2023-03-29T22:04:36.488Z,98035.13
2023-03-29T22:09:35.697Z,98034.75
2023-03-29T22:12:04.118Z,98041.41
2023-03-29T22:14:35.212Z,98041.41
2023-03-29T22:17:03.298Z,98039.44
2023-03-29T22:19:29.987Z,98039.81
2023-03-29T22:22:01.696Z,98035.13
2023-03-29T22:24:29.335Z,98038.25
2023-03-29T22:26:56.393Z,98027.66
2023-03-29T22:31:54.595Z,98028.06
2023-03-29T22:34:21.490Z,98028.84
2023-03-29T22:36:48.270Z,98017.47
2023-03-29T22:39:14.946Z,98015.13
2023-03-29T22:41:42.264Z,98032.03
2023-03-29T22:44:09.056Z,98025.72
2023-03-29T22:46:35.907Z,98031.19
2023-03-29T22:49:02.776Z,98025.69
2023-03-29T22:51:29.542Z,98019.78
2023-03-29T22:53:56.394Z,98026.03
2023-03-29T22:56:23.551Z,98022.53
2023-03-29T22:58:50.453Z,98023.31
2023-03-29T23:01:17.181Z,98028.03
2023-03-29T23:03:43.953Z,98018.59
2023-03-29T23:06:10.781Z,98029.19
2023-03-29T23:08:37.453Z,98013.88
2023-03-29T23:11:04.692Z,98024.47
2023-03-29T23:13:33.758Z,98022.53
2023-03-29T23:16:02.559Z,98019.38
2023-03-29T23:18:31.755Z,98012.31
2023-03-29T23:20:59.149Z,98005.56
2023-03-29T23:26:00.143Z,98014.63
2023-03-29T23:28:30.757Z,98009.88
2023-03-29T23:33:35.786Z,98012.19
2023-03-29T23:36:04.787Z,98004.38
2023-03-29T23:38:34.400Z,98011.06
2023-03-29T23:41:03.386Z,98001.66
2023-03-29T23:43:35.504Z,98005.19
2023-03-29T23:46:05.417Z,98007.13
2023-03-29T23:48:32.965Z,98012.94
2023-03-29T23:51:00.231Z,98014.81
2023-03-29T23:53:29.108Z,98026.19
2023-03-29T23:56:00.623Z,98035.91
2023-03-29T23:58:32.944Z,98020.16
